Time;durP1;ratioP1;P1;durP2;ratioP2;P2;SDS_P1;SDS_P2;PMS_P1;PMS_P2;Temp;Humidity;BMP_temperature;BMP_pressure;BME280_temperature;BME280_humidity;BME280_pressure;Samples;Min_cycle;Max_cycle;Signal;HPM_P1;HPM_P2
2021/09/18 00:01:16;;;;;;;76.05;29.48;;;;;;;7.31;57.83;99781.38;5054659;28;20049;-78
2021/09/18 00:03:42;;;;;;;80.05;32.75;;;;;;;7.29;57.86;99782.69;5055851;28;20060;-77
2021/09/18 00:06:08;;;;;;;82.80;34.42;;;;;;;7.27;57.95;99782.97;5053213;28;20123;-78
2021/09/18 00:08:36;;;;;;;90.13;35.17;;;;;;;7.26;58.47;99785.94;5070993;28;20045;-77
2021/09/18 00:11:02;;;;;;;86.35;33.75;;;;;;;7.22;58.45;99794.59;5059702;28;20064;-77
2021/09/18 00:13:29;;;;;;;95.20;33.70;;;;;;;7.20;58.68;99785.03;5052816;28;20053;-77
2021/09/18 00:15:55;;;;;;;76.97;32.53;;;;;;;7.24;58.72;99783.44;5070760;28;20135;-77
2021/09/18 00:18:21;;;;;;;88.28;31.60;;;;;;;7.13;58.93;99784.41;5052123;28;20148;-78
2021/09/18 00:20:47;;;;;;;75.35;31.35;;;;;;;7.15;59.03;99782.25;5052443;28;20060;-77
2021/09/18 00:23:13;;;;;;;76.80;30.15;;;;;;;7.18;59.20;99784.47;5051514;28;20063;-77
2021/09/18 00:25:41;;;;;;;75.47;30.13;;;;;;;7.17;59.41;99788.28;5056778;28;20049;-77
2021/09/18 00:28:06;;;;;;;67.40;28.05;;;;;;;7.16;59.34;99784.72;5059605;28;20055;-76
2021/09/18 00:30:32;;;;;;;65.32;27.00;;;;;;;7.11;59.82;99794.72;5053603;28;20045;-77
2021/09/18 00:33:00;;;;;;;70.78;24.42;;;;;;;7.11;59.60;99789.28;5056502;28;20513;-78
2021/09/18 00:35:26;;;;;;;64.88;25.00;;;;;;;7.05;59.92;99788.41;5044152;28;20047;-77
2021/09/18 00:37:52;;;;;;;61.00;24.10;;;;;;;7.05;60.04;99780.25;5056381;28;20065;-74
2021/09/18 00:40:21;;;;;;;52.17;23.52;;;;;;;6.98;60.26;99780.44;5059388;28;20067;-77
2021/09/18 00:42:52;;;;;;;55.13;22.30;;;;;;;6.98;60.42;99785.03;5052309;28;20088;-78
2021/09/18 00:45:18;;;;;;;62.38;23.13;;;;;;;6.94;60.59;99781.97;5056388;28;20048;-78
2021/09/18 00:47:43;;;;;;;66.00;23.63;;;;;;;6.95;60.50;99787.19;5060661;28;20152;-77
2021/09/18 00:50:10;;;;;;;61.70;24.42;;;;;;;6.96;60.64;99793.44;5053099;28;20110;-79
2021/09/18 00:52:36;;;;;;;58.20;23.48;;;;;;;6.90;60.77;99800.72;5053693;28;20052;-77
2021/09/18 00:55:04;;;;;;;65.25;24.50;;;;;;;6.85;60.80;99791.66;5036642;28;20052;-78
2021/09/18 00:57:30;;;;;;;60.67;23.05;;;;;;;6.83;60.71;99800.03;5058321;28;20508;-78
2021/09/18 01:00:02;;;;;;;57.80;23.03;;;;;;;6.85;60.78;99800.63;5053991;28;20655;-78
2021/09/18 01:02:31;;;;;;;53.47;20.77;;;;;;;6.86;60.96;99804.16;5053028;28;20057;-77
2021/09/18 01:04:57;;;;;;;51.38;20.60;;;;;;;6.80;61.02;99804.09;5050334;28;20549;-77
2021/09/18 01:07:23;;;;;;;51.85;20.10;;;;;;;6.81;60.96;99799.47;5054040;28;20099;-77
2021/09/18 01:09:50;;;;;;;58.17;22.45;;;;;;;6.80;61.18;99804.09;5060596;28;20052;-77
2021/09/18 01:12:16;;;;;;;49.03;21.67;;;;;;;6.71;60.86;99792.00;5057472;28;20159;-78
2021/09/18 01:14:47;;;;;;;60.80;22.38;;;;;;;6.78;61.23;99808.13;5066957;28;20053;-78
2021/09/18 01:17:16;;;;;;;57.13;23.63;;;;;;;6.78;61.08;99800.78;5055137;28;20098;-77
2021/09/18 01:19:42;;;;;;;55.30;23.38;;;;;;;6.75;61.13;99812.16;5051204;28;20084;-77
2021/09/18 01:22:09;;;;;;;66.05;24.98;;;;;;;6.67;61.19;99810.69;5051049;28;20519;-77
2021/09/18 01:24:37;;;;;;;63.15;23.75;;;;;;;6.63;61.71;99820.41;5056297;28;20044;-77
2021/09/18 01:27:04;;;;;;;70.78;26.33;;;;;;;6.56;61.59;99814.34;5055384;28;20140;-76
2021/09/18 01:29:30;;;;;;;65.87;25.40;;;;;;;6.56;61.55;99814.34;5050540;28;20433;-77
2021/09/18 01:31:56;;;;;;;59.13;25.60;;;;;;;6.48;61.54;99817.47;5049321;28;20044;-76
2021/09/18 01:34:24;;;;;;;64.95;26.58;;;;;;;6.53;61.62;99820.25;5051269;28;20059;-77
2021/09/18 01:36:51;;;;;;;64.22;26.83;;;;;;;6.51;61.61;99822.38;5060377;28;20560;-77
2021/09/18 01:39:18;;;;;;;62.97;24.10;;;;;;;6.54;61.49;99821.88;5051696;28;20049;-77
2021/09/18 01:41:46;;;;;;;52.53;22.67;;;;;;;6.51;61.58;99825.09;5056555;28;20045;-77
2021/09/18 01:44:13;;;;;;;50.95;20.10;;;;;;;6.54;61.48;99824.59;5049908;28;20088;-76
2021/09/18 01:46:42;;;;;;;48.10;20.70;;;;;;;6.49;61.81;99819.09;5044991;28;20056;-76
2021/09/18 01:49:13;;;;;;;42.17;16.90;;;;;;;6.59;61.62;99818.44;5049750;28;20053;-77
2021/09/18 01:51:40;;;;;;;38.10;15.73;;;;;;;6.55;61.66;99828.97;5051546;28;20048;-77
2021/09/18 01:54:06;;;;;;;34.63;15.23;;;;;;;6.56;61.56;99821.66;5049777;28;20057;-76
2021/09/18 01:56:32;;;;;;;37.45;15.13;;;;;;;6.57;61.47;99824.13;5052632;28;20553;-77
2021/09/18 01:58:59;;;;;;;33.78;13.57;;;;;;;6.55;61.39;99826.25;5047539;28;20186;-75
2021/09/18 02:01:25;;;;;;;40.67;14.43;;;;;;;6.52;61.52;99824.03;5048032;28;20061;-75
2021/09/18 02:03:51;;;;;;;37.47;13.65;;;;;;;6.53;61.46;99825.69;5056156;28;20057;-77
2021/09/18 02:06:17;;;;;;;38.83;13.82;;;;;;;6.54;61.65;99824.59;5049496;28;20057;-77
2021/09/18 02:08:43;;;;;;;32.70;12.75;;;;;;;6.50;61.59;99827.00;5050448;28;20330;-77
2021/09/18 02:11:09;;;;;;;33.72;12.70;;;;;;;6.49;61.59;99827.25;5048520;28;20059;-77
2021/09/18 02:13:38;;;;;;;30.98;12.43;;;;;;;6.45;61.79;99829.63;5056699;28;20053;-77
2021/09/18 02:16:05;;;;;;;30.83;13.10;;;;;;;6.40;62.07;99824.13;5050700;28;20394;-77
2021/09/18 02:18:31;;;;;;;31.00;13.10;;;;;;;6.39;61.95;99834.16;5065412;28;20070;-77
2021/09/18 02:21:00;;;;;;;33.17;12.88;;;;;;;6.39;61.80;99830.63;5051015;28;20055;-77
2021/09/18 02:23:26;;;;;;;36.92;13.30;;;;;;;6.38;61.83;99826.28;5039177;28;20068;-77
2021/09/18 02:25:52;;;;;;;31.85;12.57;;;;;;;6.41;61.73;99827.69;5054652;28;20077;-77
2021/09/18 02:28:18;;;;;;;32.88;12.85;;;;;;;6.41;61.70;99825.78;5051538;28;20049;-76
2021/09/18 02:30:44;;;;;;;39.95;12.77;;;;;;;6.31;61.95;99820.16;5048742;28;20549;-76
2021/09/18 02:33:11;;;;;;;33.33;14.05;;;;;;;6.33;61.99;99829.72;5052873;28;20049;-77
2021/09/18 02:35:37;;;;;;;31.30;12.15;;;;;;;6.32;61.99;99832.66;5058109;28;20057;-77
2021/09/18 02:38:06;;;;;;;32.63;12.90;;;;;;;6.29;62.12;99839.44;5050882;28;20061;-77
2021/09/18 02:40:35;;;;;;;34.63;13.30;;;;;;;6.26;62.15;99839.94;5053604;28;20421;-78
2021/09/18 02:43:02;;;;;;;40.20;16.27;;;;;;;6.27;62.26;99838.84;5049925;28;20041;-77
2021/09/18 02:45:31;;;;;;;34.47;14.88;;;;;;;6.24;61.96;99834.72;5053037;28;20076;-77
2021/09/18 02:47:57;;;;;;;39.83;15.75;;;;;;;6.25;62.02;99835.56;5048299;28;20054;-77
2021/09/18 02:50:27;;;;;;;38.35;15.63;;;;;;;6.29;61.90;99838.59;5050041;28;20053;-77
2021/09/18 02:52:57;;;;;;;40.15;16.27;;;;;;;6.23;62.05;99846.66;5032183;28;20424;-77
2021/09/18 02:55:23;;;;;;;43.70;15.52;;;;;;;6.31;62.04;99845.44;5067427;28;20107;-78
2021/09/18 02:57:49;;;;;;;37.25;15.73;;;;;;;6.34;61.73;99853.09;5059033;28;20053;-77
2021/09/18 03:00:18;;;;;;;38.97;15.10;;;;;;;6.29;61.75;99853.00;5053353;28;20157;-78
2021/09/18 03:02:47;;;;;;;40.88;16.65;;;;;;;6.30;61.77;99848.38;5052343;28;20064;-78
2021/09/18 03:05:14;;;;;;;44.35;17.00;;;;;;;6.31;61.58;99852.75;5059076;28;20063;-77
2021/09/18 03:07:42;;;;;;;36.17;14.68;;;;;;;6.30;61.65;99851.94;5054265;28;20087;-76
2021/09/18 03:10:12;;;;;;;33.53;13.57;;;;;;;6.28;61.67;99859.50;5040818;28;20056;-77
2021/09/18 03:12:39;;;;;;;28.55;12.13;;;;;;;6.24;61.67;99853.72;5053847;28;20134;-77
2021/09/18 03:15:07;;;;;;;32.42;12.18;;;;;;;6.21;61.80;99856.09;5052865;28;20107;-77
2021/09/18 03:17:33;;;;;;;35.75;11.43;;;;;;;6.19;61.89;99858.25;5054364;28;20408;-78
2021/09/18 03:19:59;;;;;;;35.97;12.10;;;;;;;6.15;61.98;99857.91;5054612;28;20044;-76
2021/09/18 03:22:25;;;;;;;37.00;10.80;;;;;;;6.22;61.81;99858.59;5055556;28;20509;-77
2021/09/18 03:24:52;;;;;;;35.05;10.93;;;;;;;6.23;61.68;99862.94;5047275;28;20144;-77
2021/09/18 03:27:18;;;;;;;28.45;11.50;;;;;;;6.24;61.56;99855.63;5049740;28;20053;-76
2021/09/18 03:29:44;;;;;;;28.33;9.95;;;;;;;6.20;62.03;99866.16;5052186;28;20083;-75
2021/09/18 03:32:11;;;;;;;27.20;10.13;;;;;;;6.16;61.86;99866.88;5058372;28;20459;-76
2021/09/18 03:34:40;;;;;;;24.13;9.40;;;;;;;6.15;61.93;99859.81;5069520;28;20350;-77
2021/09/18 03:37:06;;;;;;;25.77;10.50;;;;;;;6.25;61.80;99868.16;5059930;28;20082;-77
2021/09/18 03:39:35;;;;;;;30.55;10.93;;;;;;;6.22;61.70;99865.91;5054114;28;20083;-77
2021/09/18 03:42:03;;;;;;;30.25;10.68;;;;;;;6.22;61.58;99871.31;5056413;28;20068;-76
2021/09/18 03:44:32;;;;;;;28.75;10.00;;;;;;;6.22;61.87;99874.03;5052603;28;20040;-77
2021/09/18 03:47:00;;;;;;;29.20;10.73;;;;;;;6.25;61.57;99873.59;5052996;28;20147;-76
2021/09/18 03:49:26;;;;;;;28.17;10.75;;;;;;;6.33;61.47;99884.03;5050138;28;20134;-76
2021/09/18 03:51:55;;;;;;;30.42;10.75;;;;;;;6.32;61.32;99876.13;5057303;28;20446;-76
2021/09/18 03:54:21;;;;;;;36.58;10.93;;;;;;;6.34;61.32;99880.25;5051454;28;20060;-78
2021/09/18 03:56:47;;;;;;;30.38;10.57;;;;;;;6.42;61.05;99886.38;5059302;28;20053;-77
2021/09/18 03:59:15;;;;;;;24.60;10.38;;;;;;;6.36;61.37;99874.59;5051889;28;20083;-76
2021/09/18 04:01:44;;;;;;;28.73;10.68;;;;;;;6.39;61.13;99882.22;5067970;28;20084;-76
2021/09/18 04:04:10;;;;;;;27.55;10.25;;;;;;;6.41;61.12;99892.88;5050753;28;20529;-74
2021/09/18 04:06:36;;;;;;;27.08;10.38;;;;;;;6.42;61.16;99892.59;5057219;28;20416;-75
2021/09/18 04:09:02;;;;;;;29.83;10.68;;;;;;;6.44;61.17;99886.94;5051022;28;20087;-75
2021/09/18 04:11:28;;;;;;;32.05;11.05;;;;;;;6.44;61.35;99903.22;5033859;28;20114;-76
2021/09/18 04:13:57;;;;;;;33.05;11.77;;;;;;;6.43;61.42;99905.13;5055362;28;20049;-77
2021/09/18 04:16:24;;;;;;;37.70;12.95;;;;;;;6.42;61.54;99905.38;5049985;28;20064;-76
2021/09/18 04:18:50;;;;;;;28.23;11.32;;;;;;;6.57;61.25;99908.34;5068086;28;20465;-77
2021/09/18 04:21:17;;;;;;;38.35;11.30;;;;;;;6.51;61.13;99914.75;5052320;28;20107;-77
2021/09/18 04:23:43;;;;;;;32.13;12.35;;;;;;;6.53;61.01;99910.72;5038076;28;20064;-77
2021/09/18 04:26:09;;;;;;;37.45;11.65;;;;;;;6.51;60.97;99903.88;5059922;28;20056;-77
2021/09/18 04:28:35;;;;;;;33.30;12.43;;;;;;;6.55;61.22;99913.19;5056935;28;20045;-77
2021/09/18 04:31:01;;;;;;;40.75;12.18;;;;;;;6.61;60.96;99905.94;5056873;28;20071;-76
2021/09/18 04:33:32;;;;;;;34.25;11.57;;;;;;;6.67;60.87;99918.56;5052568;28;20140;-76
2021/09/18 04:35:58;;;;;;;36.13;11.98;;;;;;;6.65;60.92;99910.66;5052317;28;20452;-76
2021/09/18 04:38:24;;;;;;;33.50;11.52;;;;;;;6.72;60.76;99915.94;5052161;28;20111;-76
2021/09/18 04:40:50;;;;;;;31.40;11.80;;;;;;;6.70;60.93;99911.81;5066945;28;20049;-77
2021/09/18 04:43:16;;;;;;;26.73;11.70;;;;;;;6.71;61.02;99908.00;5050826;28;20049;-77
2021/09/18 04:45:42;;;;;;;30.15;10.75;;;;;;;6.74;60.91;99910.25;5052172;28;20056;-75
2021/09/18 04:48:08;;;;;;;28.58;11.13;;;;;;;6.76;60.68;99911.63;5050413;28;20049;-77
2021/09/18 04:50:39;;;;;;;23.60;10.43;;;;;;;6.89;60.35;99918.66;5067170;28;20056;-74
2021/09/18 04:53:05;;;;;;;34.47;11.48;;;;;;;6.93;60.37;99914.38;5052142;28;20104;-75
2021/09/18 04:55:31;;;;;;;27.17;10.65;;;;;;;6.90;60.55;99912.16;5065025;28;20064;-76
2021/09/18 04:57:57;;;;;;;29.27;11.02;;;;;;;6.97;60.27;99914.72;5053172;28;20059;-76
2021/09/18 05:00:23;;;;;;;27.83;10.00;;;;;;;7.02;60.14;99914.78;5051426;28;20053;-75
2021/09/18 05:02:49;;;;;;;26.63;9.88;;;;;;;7.11;60.07;99917.09;5051298;28;20050;-78
2021/09/18 05:05:15;;;;;;;26.23;9.45;;;;;;;7.04;60.02;99893.59;5051484;28;20139;-77
2021/09/18 05:07:45;;;;;;;31.70;11.20;;;;;;;7.16;59.94;99903.56;5052376;28;20057;-78
2021/09/18 05:10:12;;;;;;;24.95;9.23;;;;;;;7.24;59.81;99912.13;5049259;28;20064;-78
2021/09/18 05:12:38;;;;;;;38.33;11.45;;;;;;;7.30;59.70;99904.84;5040468;28;20571;-75
2021/09/18 05:15:05;;;;;;;28.85;9.43;;;;;;;7.33;59.86;99915.22;5034775;28;20048;-73
2021/09/18 05:17:31;;;;;;;23.98;10.00;;;;;;;7.41;59.59;99913.97;5051823;28;20505;-75
2021/09/18 05:20:00;;;;;;;28.48;9.95;;;;;;;7.41;59.34;99919.41;5052334;28;20081;-76
2021/09/18 05:22:26;;;;;;;23.88;9.57;;;;;;;7.49;59.34;99919.00;5038110;28;20041;-76
2021/09/18 05:24:53;;;;;;;26.17;11.10;;;;;;;7.49;59.14;99913.56;5054934;28;20060;-77
2021/09/18 05:27:22;;;;;;;28.88;10.73;;;;;;;7.57;59.27;99923.19;5069882;28;20045;-77
2021/09/18 05:29:48;;;;;;;30.95;10.63;;;;;;;7.55;59.53;99921.78;5063209;28;20053;-76
2021/09/18 05:32:14;;;;;;;26.80;11.45;;;;;;;7.60;59.12;99932.72;5056554;28;20163;-76
2021/09/18 05:34:40;;;;;;;29.33;10.95;;;;;;;7.61;59.23;99928.94;5068146;28;20040;-77
2021/09/18 05:37:07;;;;;;;24.50;10.43;;;;;;;7.63;59.33;99929.50;5075872;28;20057;-76
2021/09/18 05:39:33;;;;;;;23.95;9.38;;;;;;;7.72;59.45;99932.59;5055811;28;20045;-75
2021/09/18 05:42:04;;;;;;;30.33;9.83;;;;;;;7.80;59.07;99935.72;5015236;28;20056;-76
2021/09/18 05:44:30;;;;;;;25.92;9.95;;;;;;;7.84;59.03;99933.31;5047652;28;20061;-75
2021/09/18 05:46:56;;;;;;;24.95;9.63;;;;;;;7.94;58.77;99924.44;5051163;28;20119;-76
2021/09/18 05:49:25;;;;;;;28.90;8.30;;;;;;;8.11;58.57;99937.16;5052299;28;20057;-76
2021/09/18 05:51:51;;;;;;;21.63;9.25;;;;;;;8.14;58.52;99939.38;5054091;28;20061;-76
2021/09/18 05:54:16;;;;;;;24.75;9.60;;;;;;;8.17;58.67;99939.69;5049922;28;20149;-74
2021/09/18 05:56:43;;;;;;;19.33;8.68;;;;;;;8.23;58.38;99932.38;5054586;28;20057;-75
2021/09/18 05:59:13;;;;;;;20.27;8.85;;;;;;;8.29;58.38;99942.28;5052709;28;20421;-77
2021/09/18 06:01:39;;;;;;;21.60;9.32;;;;;;;8.31;58.12;99933.81;5048976;28;20052;-76
2021/09/18 06:04:05;;;;;;;18.42;8.15;;;;;;;8.31;58.36;99936.56;5049078;28;20059;-76
2021/09/18 06:06:31;;;;;;;20.52;8.63;;;;;;;8.48;58.06;99944.63;5053105;28;20053;-76
2021/09/18 06:08:57;;;;;;;18.50;8.57;;;;;;;8.55;57.96;99941.75;5064166;28;20085;-76
2021/09/18 06:11:26;;;;;;;22.88;8.48;;;;;;;8.58;57.87;99949.41;5029107;28;20053;-76
2021/09/18 06:13:53;;;;;;;23.33;8.43;;;;;;;8.55;58.04;99939.03;5048366;28;20060;-75
2021/09/18 06:16:22;;;;;;;18.60;7.93;;;;;;;8.64;58.05;99941.00;5048629;28;20055;-79
2021/09/18 06:18:53;;;;;;;18.17;7.55;;;;;;;8.63;57.76;99938.53;5055458;28;20139;-78
2021/09/18 06:21:21;;;;;;;18.33;8.13;;;;;;;8.70;57.79;99938.31;5050120;28;20072;-79
2021/09/18 06:23:50;;;;;;;19.17;7.22;;;;;;;8.84;57.51;99945.00;5051006;28;20075;-80
2021/09/18 06:26:16;;;;;;;19.45;7.03;;;;;;;8.86;57.52;99933.84;5050013;28;20056;-80
2021/09/18 06:29:16;;;;;;;19.30;7.35;;;;;;;8.52;57.27;99880.38;5050654;28;20057;-80
2021/09/18 06:32:45;;;;;;;;;;;;;;;;;;;;;
2021/09/18 06:35:42;;;;;;;18.92;7.25;;;;;;;8.68;57.05;99888.69;5049376;28;20049;-77
2021/09/18 06:42:58;;;;;;;14.75;6.50;;;;;;;9.11;56.76;99922.31;4998888;28;20050;-79
2021/09/18 06:54:39;;;;;;;14.27;4.80;;;;;;;9.44;56.01;99944.88;5002914;28;20153;-79
2021/09/18 07:14:56;;;;;;;16.73;4.47;;;;;;;10.04;54.89;99939.16;5016603;28;20058;-79
2021/09/18 07:17:54;;;;;;;9.82;3.60;;;;;;;10.11;54.93;99943.53;5026207;28;20116;-79
2021/09/18 07:20:32;;;;;;;12.95;3.53;;;;;;;9.73;54.57;99865.31;4985104;28;20046;-79
2021/09/18 07:27:29;;;;;;;13.90;3.72;;;;;;;9.83;54.11;99855.50;4991753;28;20078;-79
2021/09/18 07:35:46;;;;;;;17.92;3.13;;;;;;;10.24;53.44;99863.00;4942220;29;20135;-79
2021/09/18 07:41:52;;;;;;;15.07;2.60;;;;;;;10.91;52.56;99923.22;4952392;28;20053;-78
2021/09/18 07:44:18;;;;;;;5.80;2.30;;;;;;;10.99;52.18;99924.56;4999825;28;20482;-74
2021/09/18 07:46:44;;;;;;;13.93;2.67;;;;;;;11.07;51.78;99915.78;5013410;28;20057;-73
2021/09/18 07:49:10;;;;;;;16.05;2.47;;;;;;;11.12;51.62;99912.25;4981912;28;20049;-75
2021/09/18 07:51:37;;;;;;;10.10;2.55;;;;;;;11.21;50.96;99911.41;5009933;28;20073;-74
2021/09/18 07:54:03;;;;;;;10.48;2.67;;;;;;;11.25;50.48;99908.13;5007672;28;20054;-73
2021/09/18 07:56:29;;;;;;;5.93;2.00;;;;;;;11.33;50.11;99913.84;4969949;28;20513;-74
2021/09/18 07:58:57;;;;;;;7.60;2.40;;;;;;;11.35;49.58;99902.63;5003054;28;20133;-81
2021/09/18 08:01:24;;;;;;;7.78;2.35;;;;;;;11.38;49.33;99906.72;5009281;28;20054;-80
2021/09/18 08:03:51;;;;;;;;;;;;;;;11.52;49.30;99916.00;5009467;28;20053;-82
2021/09/18 08:06:17;;;;;;;6.22;1.92;;;;;;;11.51;48.89;99919.84;5003895;28;20531;-79
2021/09/18 08:08:45;;;;;;;5.57;2.00;;;;;;;11.41;48.57;99897.94;4974962;28;20101;-82
2021/09/18 08:11:11;;;;;;;7.10;1.95;;;;;;;11.46;48.77;99914.34;4990594;28;20069;-82
2021/09/18 08:13:40;;;;;;;8.27;2.10;;;;;;;11.53;48.68;99914.91;5002494;28;20093;-82
2021/09/18 08:16:06;;;;;;;8.40;2.20;;;;;;;11.65;48.66;99913.78;4987255;28;20076;-80
2021/09/18 08:18:32;;;;;;;9.13;2.15;;;;;;;11.67;48.76;99912.38;5002033;28;20051;-81
2021/09/18 08:20:58;;;;;;;5.93;1.92;;;;;;;11.71;48.11;99901.69;4985614;28;20082;-81
2021/09/18 08:23:24;;;;;;;7.28;2.15;;;;;;;11.78;47.70;99910.41;4993929;28;20542;-81
2021/09/18 08:25:51;;;;;;;10.30;2.15;;;;;;;11.92;47.67;99916.94;4974540;28;20058;-81
2021/09/18 08:28:17;;;;;;;13.90;2.08;;;;;;;11.97;46.99;99909.81;4973331;28;20057;-82
2021/09/18 08:30:43;;;;;;;9.60;2.10;;;;;;;12.00;46.81;99914.72;5005202;28;20054;-81
2021/09/18 08:36:09;;;;;;;6.65;1.90;;;;;;;12.01;46.22;99880.72;4973233;28;20549;-81
2021/09/18 08:38:36;;;;;;;8.05;1.80;;;;;;;12.41;45.83;99919.19;4989522;28;20094;-82
2021/09/18 08:41:07;;;;;;;6.18;2.22;;;;;;;12.29;45.24;99886.63;4994469;28;20054;-82
2021/09/18 08:43:34;;;;;;;9.75;2.20;;;;;;;12.28;45.30;99893.22;4987660;28;20065;-81
2021/09/18 08:46:00;;;;;;;6.43;1.95;;;;;;;12.42;45.56;99907.09;5007176;28;20062;-82
2021/09/18 08:48:27;;;;;;;9.40;2.60;;;;;;;12.49;45.52;99910.38;4980068;28;20046;-81
2021/09/18 08:50:53;;;;;;;7.50;2.63;;;;;;;12.18;45.34;99874.91;4989433;28;20554;-82
2021/09/18 08:56:51;;;;;;;11.88;2.97;;;;;;;12.00;45.35;99833.31;4994671;28;20070;-81
2021/09/18 08:59:25;;;;;;;10.52;3.45;;;;;;;12.10;45.33;99837.97;4998497;28;20047;-81
2021/09/18 09:02:21;;;;;;;8.68;3.10;;;;;;;12.61;45.51;99907.25;4997448;28;20055;-80
2021/09/18 09:05:02;;;;;;;11.70;3.00;;;;;;;12.62;45.93;99903.41;4979597;28;20058;-78
2021/09/18 09:07:28;;;;;;;12.45;2.80;;;;;;;12.68;46.04;99906.94;4984955;28;20574;-78
2021/09/18 09:09:56;;;;;;;11.02;3.10;;;;;;;12.74;46.26;99903.84;4984308;28;20094;-78
2021/09/18 09:12:28;;;;;;;10.93;2.90;;;;;;;12.66;46.11;99877.03;4974027;28;20444;-78
2021/09/18 09:15:02;;;;;;;12.73;2.97;;;;;;;12.83;45.44;99897.75;4963348;28;20150;-78
2021/09/18 09:17:30;;;;;;;11.95;3.47;;;;;;;12.81;45.74;99905.44;5000686;28;20084;-80
2021/09/18 09:19:59;;;;;;;12.10;3.28;;;;;;;12.85;45.35;99904.59;4981251;28;20059;-81
2021/09/18 09:22:43;;;;;;;12.60;3.67;;;;;;;12.84;45.23;99875.50;4981889;28;20065;-81
2021/09/18 09:25:27;;;;;;;9.25;3.10;;;;;;;13.03;44.70;99900.31;4976904;28;20054;-77
2021/09/18 09:27:56;;;;;;;12.52;3.40;;;;;;;13.01;44.36;99877.81;4973157;28;20535;-76
2021/09/18 09:30:30;;;;;;;8.98;3.38;;;;;;;13.17;43.53;99894.13;4973533;28;20053;-77
2021/09/18 09:33:07;;;;;;;18.35;4.10;;;;;;;13.36;42.86;99887.91;5012270;28;20049;-77
2021/09/18 09:35:36;;;;;;;12.70;4.47;;;;;;;13.28;43.23;99887.44;5007250;28;20073;-79
2021/09/18 09:42:41;;;;;;;;;;;;;;;;;;;;;
2021/09/18 09:45:54;;;;;;;12.52;3.50;;;;;;;12.93;42.97;99829.06;5050285;28;20052;-79
2021/09/18 09:48:44;;;;;;;11.00;3.35;;;;;;;13.10;42.20;99816.81;5010665;28;20121;-79
2021/09/18 09:51:50;;;;;;;10.20;3.80;;;;;;;13.41;41.52;99828.22;5056956;28;20045;-79
2021/09/18 09:54:59;;;;;;;10.32;3.70;;;;;;;13.86;41.42;99865.63;5043445;28;20072;-80
2021/09/18 09:58:06;;;;;;;8.93;3.05;;;;;;;13.82;41.73;99843.44;4989485;28;20069;-79
2021/09/18 10:01:44;;;;;;;12.68;3.28;;;;;;;13.89;41.54;99854.88;5023664;28;20059;-80
2021/09/18 10:04:45;;;;;;;9.75;3.38;;;;;;;14.09;41.89;99907.91;5050497;28;20171;-80
2021/09/18 10:07:55;;;;;;;10.25;2.92;;;;;;;13.99;41.39;99864.09;4920583;28;20059;-80
2021/09/18 10:10:55;;;;;;;12.93;2.70;;;;;;;14.13;40.36;99858.66;5007941;28;20505;-78
2021/09/18 10:14:21;;;;;;;11.43;2.90;;;;;;;13.98;40.11;99827.53;5047686;28;20063;-79
2021/09/18 10:17:18;;;;;;;6.35;2.35;;;;;;;14.03;40.09;99884.38;5025124;28;20064;-78
2021/09/18 10:24:12;;;;;;;7.30;2.40;;;;;;;14.13;40.30;99880.66;4995691;28;21107;-78
2021/09/18 10:27:31;;;;;;;8.48;3.13;;;;;;;13.97;41.08;99878.13;4971009;28;20057;-78
2021/09/18 10:30:25;;;;;;;;;;;;;;;14.17;40.97;99910.03;5036566;28;20139;-78
2021/09/18 10:33:44;;;;;;;9.75;3.80;;;;;;;13.90;41.02;99833.72;5047455;28;19925;-77
2021/09/18 10:36:57;;;;;;;15.25;4.50;;;;;;;13.88;40.61;99842.25;5003564;28;20053;-78
2021/09/18 10:39:42;;;;;;;7.95;3.22;;;;;;;14.26;40.38;99904.66;4991577;28;20042;-79
2021/09/18 10:42:55;;;;;;;9.30;3.10;;;;;;;13.85;39.94;99837.34;4976557;28;20050;-78
2021/09/18 10:46:00;;;;;;;14.35;4.88;;;;;;;14.43;40.61;99908.84;4982873;28;20565;-79
2021/09/18 10:49:18;;;;;;;13.18;4.38;;;;;;;14.51;41.02;99904.59;5015215;28;20060;-79
2021/09/18 10:55:10;;;;;;;17.48;4.50;;;;;;;14.39;41.31;99908.59;5000152;28;20089;-77
2021/09/18 10:57:54;;;;;;;;;;;;;;;14.33;41.47;99899.59;5006011;28;20585;-75
2021/09/18 11:00:41;;;;;;;16.52;4.93;;;;;;;14.74;40.40;99905.63;5007259;28;20465;-76
2021/09/18 11:03:08;;;;;;;12.63;4.10;;;;;;;15.10;40.16;99895.94;4986024;28;20137;-77
2021/09/18 11:05:45;;;;;;;12.30;3.57;;;;;;;15.36;39.43;99892.69;4989735;28;20050;-75
2021/09/18 11:12:38;;;;;;;9.48;3.20;;;;;;;16.04;38.79;99893.03;5005100;28;20076;-76
2021/09/18 11:15:07;;;;;;;12.23;3.70;;;;;;;16.52;38.85;99893.59;5048846;28;20049;-77
2021/09/18 11:17:37;;;;;;;10.20;3.20;;;;;;;17.03;38.18;99882.44;5044420;28;20064;-77
2021/09/18 11:20:13;;;;;;;9.80;3.35;;;;;;;17.11;37.62;99888.00;5051173;28;20135;-76
2021/09/18 11:22:43;;;;;;;11.47;3.60;;;;;;;16.82;37.87;99886.50;5051159;28;20051;-75
2021/09/18 11:25:31;;;;;;;15.50;4.07;;;;;;;16.48;38.40;99882.38;5052659;28;20059;-76
2021/09/18 11:28:03;;;;;;;17.33;4.10;;;;;;;17.05;38.10;99875.47;5035377;28;20067;-76
2021/09/18 11:30:44;;;;;;;11.35;4.00;;;;;;;17.68;36.89;99880.09;5045474;28;20060;-77
2021/09/18 11:33:14;;;;;;;9.00;4.00;;;;;;;18.18;36.37;99878.09;5045195;28;20044;-83
2021/09/18 11:35:49;;;;;;;17.75;3.85;;;;;;;18.55;35.81;99867.53;5052024;28;20110;-76
2021/09/18 11:38:20;;;;;;;11.13;3.60;;;;;;;18.73;35.28;99875.81;5046482;28;20186;-77
2021/09/18 11:40:46;;;;;;;10.57;2.80;;;;;;;18.51;34.85;99878.44;5051672;28;20049;-76
2021/09/18 11:43:15;;;;;;;8.15;3.08;;;;;;;18.37;34.87;99862.00;5052810;28;20037;-75
2021/09/18 11:45:41;;;;;;;15.18;4.03;;;;;;;18.75;34.12;99867.97;5034720;28;20490;-76
2021/09/18 11:48:07;;;;;;;12.00;3.47;;;;;;;19.11;33.92;99867.59;5063514;28;20060;-75
2021/09/18 11:50:36;;;;;;;11.27;4.15;;;;;;;19.44;32.97;99865.34;5067774;28;20509;-74
2021/09/18 11:53:05;;;;;;;11.07;4.32;;;;;;;19.19;33.36;99876.19;5051638;28;20045;-75
2021/09/18 11:55:37;;;;;;;12.80;4.57;;;;;;;19.37;33.22;99872.25;5054062;28;20051;-75
2021/09/18 11:58:10;;;;;;;12.20;3.90;;;;;;;19.41;32.65;99873.19;5053822;28;20048;-75
2021/09/18 12:00:41;;;;;;;11.10;3.80;;;;;;;18.97;33.18;99867.78;5052243;28;20060;-75
2021/09/18 12:03:07;;;;;;;11.60;3.95;;;;;;;19.10;33.17;99868.75;5043698;28;20073;-75
2021/09/18 12:05:33;;;;;;;12.82;3.63;;;;;;;19.10;32.82;99877.06;5052661;28;20139;-74
2021/09/18 12:08:00;;;;;;;16.67;3.80;;;;;;;19.11;32.96;99875.09;5036677;28;20049;-75
2021/09/18 12:10:26;;;;;;;18.50;4.50;;;;;;;19.24;32.97;99868.53;5045449;28;20579;-76
2021/09/18 12:12:58;;;;;;;19.17;5.85;;;;;;;19.49;32.33;99868.75;5060105;28;20041;-75
2021/09/18 12:15:34;;;;;;;15.15;4.75;;;;;;;19.88;31.74;99865.94;5067013;28;20049;-74
2021/09/18 12:18:04;;;;;;;17.58;4.63;;;;;;;20.31;31.28;99861.22;5060040;28;20417;-73
2021/09/18 12:20:32;;;;;;;13.02;4.30;;;;;;;20.39;31.37;99852.03;5050553;28;20463;-75
2021/09/18 12:22:58;;;;;;;11.55;3.63;;;;;;;20.48;31.32;99865.84;5027715;28;20099;-74
2021/09/18 12:25:30;;;;;;;14.25;3.78;;;;;;;19.88;30.97;99832.63;5051797;28;20057;-75
2021/09/18 12:27:58;;;;;;;15.15;3.88;;;;;;;19.65;31.98;99860.66;5051222;28;20465;-74
2021/09/18 12:30:27;;;;;;;13.15;3.80;;;;;;;19.63;31.96;99843.56;5052882;28;20070;-76
2021/09/18 12:33:06;;;;;;;10.65;3.70;;;;;;;19.71;31.47;99841.88;5021988;28;20412;-81
2021/09/18 12:35:42;;;;;;;11.65;4.25;;;;;;;19.92;31.42;99858.59;5048873;28;20059;-75
2021/09/18 12:38:09;;;;;;;16.83;4.77;;;;;;;20.03;31.47;99850.66;5058914;28;20434;-75
2021/09/18 12:40:42;;;;;;;16.70;4.60;;;;;;;20.10;31.45;99841.81;5067632;28;20201;-76
2021/09/18 12:43:14;;;;;;;14.40;4.32;;;;;;;19.88;31.73;99834.59;5051975;28;20527;-76
2021/09/18 12:45:41;;;;;;;16.33;4.20;;;;;;;19.89;31.34;99855.63;5048632;28;20041;-76
2021/09/18 12:48:15;;;;;;;12.50;3.50;;;;;;;19.57;31.72;99844.91;5051341;28;20041;-76
2021/09/18 12:51:09;;;;;;;9.88;3.15;;;;;;;19.61;31.49;99853.38;5051813;28;20064;-77
2021/09/18 12:53:42;;;;;;;13.00;3.25;;;;;;;19.63;31.47;99849.09;5000786;28;20053;-76
2021/09/18 12:56:11;;;;;;;13.88;3.90;;;;;;;19.56;31.72;99849.63;5045068;28;20190;-76
2021/09/18 12:58:38;;;;;;;10.93;3.58;;;;;;;19.41;31.19;99847.41;5052362;28;20052;-76
2021/09/18 13:01:05;;;;;;;;;;;;;;;19.35;31.45;99844.00;5051667;28;20133;-75